Terminal Aerodrome Forecast
Issued by NWS

Home | Current Version | Previous Version | Text Only | Print | Product List | Glossary On
Versions: 1 2 3 4 5 6 7 8 9 10 11 12
000
FTUS41 KBTV 230500
TAFRUT
TAF
KRUT 230532Z 2306/2406 29004KT P6SM VCSH SCT020 OVC035
      TEMPO 2306/2310 BKN025 OVC035
     FM231400 31009G18KT P6SM VCSH OVC035
     FM240000 31006KT P6SM VCSH OVC035
      AMD LTD TO CLD VIS AND WIND=

USA.gov is the U.S. government's official web portal to all federal, state and local government web resources and services.